createdAt,value
2018-01-11T00:00:36.655Z,10.7
2018-01-11T00:01:17.215Z,10.68
2018-01-11T00:01:57.784Z,10.56
2018-01-11T00:02:38.322Z,10.7
2018-01-11T00:03:18.953Z,10.79
2018-01-11T00:03:59.460Z,10.78
2018-01-11T00:04:39.999Z,10.79
2018-01-11T00:05:20.561Z,10.73
2018-01-11T00:06:01.060Z,10.85
2018-01-11T00:06:41.578Z,10.91
2018-01-11T00:07:22.159Z,10.81
2018-01-11T00:08:02.720Z,10.86
2018-01-11T00:08:43.246Z,10.76
2018-01-11T00:09:23.767Z,10.76
2018-01-11T00:10:04.400Z,10.67
2018-01-11T00:10:44.808Z,10.7
2018-01-11T00:11:25.375Z,10.71
2018-01-11T00:12:05.939Z,10.68
2018-01-11T00:12:46.444Z,10.68
2018-01-11T00:13:27.056Z,10.63
2018-01-11T00:14:07.592Z,10.41
2018-01-11T00:14:48.140Z,10.33
2018-01-11T00:15:28.657Z,10.51
2018-01-11T00:16:09.283Z,10.55
2018-01-11T00:16:49.818Z,10.52
2018-01-11T00:17:30.299Z,10.55
2018-01-11T00:18:10.838Z,10.44
2018-01-11T00:18:51.393Z,10.36
2018-01-11T00:19:31.956Z,10.3
2018-01-11T00:20:12.516Z,10.32
2018-01-11T00:20:53.008Z,10.34
2018-01-11T00:21:33.731Z,10.4
2018-01-11T00:22:14.278Z,10.38
2018-01-11T00:22:54.945Z,10.52
2018-01-11T00:23:35.601Z,10.53
2018-01-11T00:24:16.093Z,10.55
2018-01-11T00:24:56.893Z,10.53
2018-01-11T00:25:37.410Z,10.51
2018-01-11T00:26:17.957Z,10.41
2018-01-11T00:26:58.494Z,10.52
2018-01-11T00:27:39.042Z,10.48
2018-01-11T00:28:19.695Z,10.36
2018-01-11T00:29:00.152Z,10.34
2018-01-11T00:29:40.725Z,10.38
2018-01-11T00:30:21.303Z,10.4
2018-01-11T00:31:01.792Z,10.26
2018-01-11T00:31:42.496Z,10.4
2018-01-11T00:32:23.010Z,10.36
2018-01-11T00:33:03.612Z,10.4
2018-01-11T00:33:44.120Z,10.36
2018-01-11T00:34:24.807Z,10.3
2018-01-11T00:35:05.300Z,10.33
2018-01-11T00:35:45.876Z,10.44
2018-01-11T00:36:26.501Z,10.51
2018-01-11T00:37:06.996Z,10.56
2018-01-11T00:37:47.571Z,10.55
2018-01-11T00:38:28.104Z,10.41
2018-01-11T00:39:08.629Z,10.42
2018-01-11T00:39:49.208Z,10.59
2018-01-11T00:40:29.697Z,10.48
2018-01-11T00:41:10.299Z,10.48
2018-01-11T00:41:50.762Z,10.52
2018-01-11T00:42:31.348Z,10.52
2018-01-11T00:43:11.871Z,10.61
2018-01-11T00:43:52.427Z,10.67
2018-01-11T00:44:32.950Z,10.59
2018-01-11T00:45:13.469Z,10.68
2018-01-11T00:45:53.989Z,10.67
2018-01-11T00:46:34.543Z,10.7
2018-01-11T00:47:15.087Z,10.61
2018-01-11T00:47:55.602Z,10.64
2018-01-11T00:48:36.101Z,10.71
2018-01-11T00:49:16.654Z,10.63
2018-01-11T00:49:57.201Z,10.55
2018-01-11T00:50:38.009Z,10.55
2018-01-11T00:51:18.713Z,10.56
2018-01-11T00:51:59.397Z,10.59
2018-01-11T00:52:40.039Z,10.52
2018-01-11T00:53:20.822Z,10.53
2018-01-11T00:54:01.228Z,10.47
2018-01-11T00:54:41.935Z,10.42
2018-01-11T00:55:22.601Z,10.52
2018-01-11T00:56:03.560Z,10.52
2018-01-11T00:56:44.303Z,10.48
2018-01-11T00:57:24.852Z,10.56
2018-01-11T00:58:05.382Z,10.45
2018-01-11T00:58:45.918Z,10.48
2018-01-11T00:59:26.453Z,10.4
2018-01-11T01:00:07.022Z,10.45
2018-01-11T01:00:47.592Z,10.45
2018-01-11T01:01:28.101Z,10.44
2018-01-11T01:02:08.643Z,10.44
2018-01-11T01:02:49.183Z,10.56
2018-01-11T01:03:29.735Z,10.6
2018-01-11T01:04:10.219Z,10.64
2018-01-11T01:04:50.758Z,10.63
2018-01-11T01:05:31.289Z,10.66
2018-01-11T01:06:11.832Z,10.67
2018-01-11T01:06:52.363Z,10.81
2018-01-11T01:07:32.959Z,10.73
2018-01-11T01:08:13.515Z,10.84
2018-01-11T01:08:54.015Z,10.79
2018-01-11T01:09:34.524Z,10.84
2018-01-11T01:10:15.062Z,10.85
2018-01-11T01:10:55.590Z,10.82
2018-01-11T01:11:36.130Z,10.92
2018-01-11T01:12:16.654Z,10.88
2018-01-11T01:12:57.168Z,10.81
2018-01-11T01:13:37.726Z,10.56
2018-01-11T01:14:18.259Z,10.71
2018-01-11T01:14:58.828Z,10.7
2018-01-11T01:15:39.378Z,10.73
2018-01-11T01:16:19.952Z,10.67
2018-01-11T01:17:00.457Z,10.76
2018-01-11T01:17:41.021Z,10.74
2018-01-11T01:18:21.563Z,10.7
2018-01-11T01:19:02.095Z,10.7
2018-01-11T01:19:42.604Z,10.74
2018-01-11T01:20:23.156Z,10.81
2018-01-11T01:21:03.647Z,10.81
2018-01-11T01:21:44.245Z,10.85
2018-01-11T01:22:24.797Z,10.85
2018-01-11T01:23:05.450Z,10.78
2018-01-11T01:23:46.141Z,10.89
2018-01-11T01:24:26.660Z,10.82
2018-01-11T01:25:07.177Z,10.84
2018-01-11T01:25:47.836Z,10.85
2018-01-11T01:26:28.546Z,10.85
2018-01-11T01:27:08.939Z,10.84
2018-01-11T01:27:49.865Z,10.78
2018-01-11T01:28:30.412Z,10.73
2018-01-11T01:29:10.879Z,10.76
2018-01-11T01:29:51.487Z,10.84
2018-01-11T01:30:32.077Z,10.91
2018-01-11T01:31:12.589Z,10.85
2018-01-11T01:31:53.160Z,10.88
2018-01-11T01:32:33.842Z,10.86
2018-01-11T01:33:14.374Z,10.97
2018-01-11T01:33:54.836Z,10.88
2018-01-11T01:34:35.377Z,10.84
2018-01-11T01:35:15.938Z,10.82
2018-01-11T01:35:56.437Z,10.82
2018-01-11T01:36:36.966Z,10.84
2018-01-11T01:37:17.503Z,10.76
2018-01-11T01:37:58.045Z,10.81
2018-01-11T01:38:38.536Z,10.81
2018-01-11T01:39:19.097Z,10.78
2018-01-11T01:39:59.612Z,10.82
2018-01-11T01:40:40.156Z,10.96
2018-01-11T01:41:20.687Z,10.94
2018-01-11T01:42:01.229Z,10.94
2018-01-11T01:42:41.784Z,10.97
2018-01-11T01:43:22.396Z,10.91
2018-01-11T01:44:02.967Z,10.79
2018-01-11T01:44:43.453Z,10.79
2018-01-11T01:45:24.021Z,10.85
2018-01-11T01:46:04.578Z,10.78
2018-01-11T01:46:45.074Z,10.91
2018-01-11T01:47:25.602Z,10.86
2018-01-11T01:48:06.154Z,10.96
2018-01-11T01:48:46.689Z,11
2018-01-11T01:49:27.213Z,10.94
2018-01-11T01:50:07.750Z,10.99
2018-01-11T01:50:48.279Z,11.07
2018-01-11T01:51:28.795Z,11.07
2018-01-11T01:52:09.339Z,10.96
2018-01-11T01:52:49.865Z,10.97
2018-01-11T01:53:30.383Z,11
2018-01-11T01:54:10.952Z,11
2018-01-11T01:54:51.524Z,10.97
2018-01-11T01:55:32.030Z,11.07
2018-01-11T01:56:12.589Z,11.03
2018-01-11T01:56:53.139Z,10.99
2018-01-11T01:57:33.719Z,11.02
2018-01-11T01:58:14.267Z,10.99
2018-01-11T01:58:54.851Z,11.07
2018-01-11T01:59:35.316Z,11.04
2018-01-11T02:00:15.852Z,11.03
2018-01-11T02:00:56.405Z,11.04
2018-01-11T02:01:36.971Z,10.99
2018-01-11T02:02:17.513Z,11.09
2018-01-11T02:02:58.024Z,11.18
2018-01-11T02:03:38.587Z,11.04
2018-01-11T02:04:19.087Z,10.97
2018-01-11T02:04:59.668Z,11.11
2018-01-11T02:05:40.248Z,11.11
2018-01-11T02:06:20.764Z,11.11
2018-01-11T02:07:01.312Z,11.18
2018-01-11T02:07:41.802Z,11.11
2018-01-11T02:08:22.358Z,11.03
2018-01-11T02:09:02.870Z,11.18
2018-01-11T02:09:43.399Z,11.27
2018-01-11T02:10:23.951Z,11.17
2018-01-11T02:11:04.478Z,11.19
2018-01-11T02:11:44.995Z,11.22
2018-01-11T02:12:25.526Z,11.32
2018-01-11T02:13:06.040Z,11.21
2018-01-11T02:13:46.578Z,11.33
2018-01-11T02:14:27.073Z,11.35
2018-01-11T02:15:07.639Z,11.35
2018-01-11T02:15:48.118Z,11.37
2018-01-11T02:16:28.661Z,11.36
2018-01-11T02:17:09.240Z,11.35
2018-01-11T02:17:49.706Z,11.32
2018-01-11T02:18:30.277Z,11.35
2018-01-11T02:19:10.818Z,11.36
2018-01-11T02:19:51.410Z,11.33
2018-01-11T02:20:31.936Z,11.35
2018-01-11T02:21:12.445Z,11.36
2018-01-11T02:21:52.997Z,11.36
2018-01-11T02:22:33.503Z,11.42
2018-01-11T02:23:14.050Z,11.37
2018-01-11T02:23:54.586Z,11.33
2018-01-11T02:24:35.105Z,11.39
2018-01-11T02:25:15.625Z,11.37
2018-01-11T02:25:56.194Z,11.33
2018-01-11T02:26:36.721Z,11.28
2018-01-11T02:27:17.203Z,11.14
2018-01-11T02:27:57.796Z,11.22
2018-01-11T02:28:38.338Z,11.18
2018-01-11T02:29:18.886Z,11.09
2018-01-11T02:29:59.403Z,11.21
2018-01-11T02:30:39.901Z,11.22
2018-01-11T02:31:20.490Z,11.14
2018-01-11T02:32:00.994Z,11.1
2018-01-11T02:32:41.533Z,11.03
2018-01-11T02:33:22.073Z,11
2018-01-11T02:34:02.605Z,11.02
2018-01-11T02:34:43.136Z,11.09
2018-01-11T02:35:23.622Z,11.03
2018-01-11T02:36:04.182Z,11.17
2018-01-11T02:36:44.733Z,11.21
2018-01-11T02:37:25.242Z,11.17
2018-01-11T02:38:05.750Z,10.96
2018-01-11T02:38:46.305Z,11.07
2018-01-11T02:39:26.847Z,11.04
2018-01-11T02:40:07.345Z,11.11
2018-01-11T02:40:47.891Z,11.19
2018-01-11T02:41:28.440Z,11.22
2018-01-11T02:42:08.990Z,11.21
2018-01-11T02:42:49.495Z,11.18
2018-01-11T02:43:30.032Z,11.22
2018-01-11T02:44:10.579Z,11.18
2018-01-11T02:44:51.135Z,11.11
2018-01-11T02:45:31.697Z,11.17
2018-01-11T02:46:12.171Z,11.18
2018-01-11T02:46:52.766Z,11.19
2018-01-11T02:47:33.254Z,11.17
2018-01-11T02:48:13.752Z,11.22
2018-01-11T02:48:54.347Z,11.15
2018-01-11T02:49:34.860Z,11.25
2018-01-11T02:50:15.378Z,11.32
2018-01-11T02:50:55.899Z,11.29
2018-01-11T02:51:36.454Z,11.37
2018-01-11T02:52:16.988Z,11.32
2018-01-11T02:52:57.523Z,11.36
2018-01-11T02:53:38.105Z,11.33
2018-01-11T02:54:18.653Z,11.32
2018-01-11T02:54:59.240Z,11.29
2018-01-11T02:55:39.791Z,11.28
2018-01-11T02:56:20.326Z,11.35
2018-01-11T02:57:00.831Z,11.32
2018-01-11T02:57:41.349Z,11.43
2018-01-11T02:58:21.879Z,11.46
2018-01-11T02:59:02.453Z,11.39
2018-01-11T02:59:43.017Z,11.37
2018-01-11T03:00:23.489Z,11.36
2018-01-11T03:01:04.062Z,11.37
2018-01-11T03:01:44.643Z,11.39
2018-01-11T03:02:25.217Z,11.25
2018-01-11T03:03:05.714Z,11.32
2018-01-11T03:03:46.283Z,11.46
2018-01-11T03:04:26.771Z,11.4
2018-01-11T03:05:07.304Z,11.49
2018-01-11T03:05:47.880Z,11.35
2018-01-11T03:06:28.339Z,11.33
2018-01-11T03:07:08.889Z,11.25
2018-01-11T03:07:49.380Z,11.28
2018-01-11T03:08:29.942Z,11.29
2018-01-11T03:09:10.503Z,11.29
2018-01-11T03:09:51.057Z,11.28
2018-01-11T03:10:31.550Z,11.36
2018-01-11T03:11:12.099Z,11.28
2018-01-11T03:11:52.634Z,11.29
2018-01-11T03:12:33.190Z,11.32
2018-01-11T03:13:13.719Z,11.35
2018-01-11T03:13:54.241Z,11.33
2018-01-11T03:14:34.772Z,11.24
2018-01-11T03:15:15.321Z,11.22
2018-01-11T03:15:55.847Z,11.36
2018-01-11T03:16:36.419Z,11.24
2018-01-11T03:17:16.944Z,11.15
2018-01-11T03:17:57.484Z,11.21
2018-01-11T03:18:38.006Z,11.22
2018-01-11T03:19:18.522Z,11.19
2018-01-11T03:19:59.067Z,11.06
2018-01-11T03:20:39.592Z,11.11
2018-01-11T03:21:20.128Z,11.22
2018-01-11T03:22:00.686Z,11.22
2018-01-11T03:22:41.240Z,11.09
2018-01-11T03:23:21.739Z,11.03
2018-01-11T03:24:02.250Z,11
2018-01-11T03:24:42.828Z,11.02
2018-01-11T03:25:23.336Z,11
2018-01-11T03:26:03.823Z,10.94
2018-01-11T03:26:44.354Z,10.88
2018-01-11T03:27:24.884Z,10.99
2018-01-11T03:28:05.450Z,11.06
2018-01-11T03:28:46.001Z,11.03
2018-01-11T03:29:26.537Z,10.94
2018-01-11T03:30:07.030Z,10.99
2018-01-11T03:30:47.612Z,10.92
2018-01-11T03:31:28.101Z,10.76
2018-01-11T03:32:08.693Z,10.82
2018-01-11T03:32:49.260Z,10.84
2018-01-11T03:33:29.856Z,10.56
2018-01-11T03:34:10.356Z,10.59
2018-01-11T03:34:50.844Z,10.63
2018-01-11T03:35:31.417Z,10.63
2018-01-11T03:36:11.971Z,10.67
2018-01-11T03:36:52.520Z,10.78
2018-01-11T03:37:33.069Z,10.73
2018-01-11T03:38:13.634Z,10.78
2018-01-11T03:38:54.132Z,10.91
2018-01-11T03:39:34.714Z,10.78
2018-01-11T03:40:15.256Z,10.74
2018-01-11T03:40:55.784Z,10.74
2018-01-11T03:41:36.295Z,10.7
2018-01-11T03:42:16.876Z,10.85
2018-01-11T03:42:57.439Z,10.92
2018-01-11T03:43:37.994Z,10.94
2018-01-11T03:44:18.527Z,10.97
2018-01-11T03:44:59.033Z,10.78
2018-01-11T03:45:39.524Z,10.86
2018-01-11T03:46:20.068Z,10.84
2018-01-11T03:47:00.575Z,10.81
2018-01-11T03:47:41.145Z,10.79
2018-01-11T03:48:21.663Z,10.82
2018-01-11T03:49:02.195Z,10.82
2018-01-11T03:49:42.776Z,10.86
2018-01-11T03:50:23.308Z,10.82
2018-01-11T03:51:03.824Z,10.81
2018-01-11T03:51:44.370Z,10.81
2018-01-11T03:52:24.896Z,10.85
2018-01-11T03:53:05.406Z,10.85
2018-01-11T03:53:45.938Z,10.82
2018-01-11T03:54:26.523Z,10.84
2018-01-11T03:55:07.076Z,10.81
2018-01-11T03:55:47.588Z,10.71
2018-01-11T03:56:28.156Z,10.81
2018-01-11T03:57:08.712Z,10.79
2018-01-11T03:57:49.210Z,10.84
2018-01-11T03:58:29.717Z,10.88
2018-01-11T03:59:10.255Z,10.89
2018-01-11T03:59:50.808Z,10.96
2018-01-11T04:00:31.299Z,10.89
2018-01-11T04:01:11.865Z,10.96
2018-01-11T04:01:52.496Z,10.86
2018-01-11T04:02:32.974Z,10.78
2018-01-11T04:03:13.576Z,10.82
2018-01-11T04:03:54.146Z,10.81
2018-01-11T04:04:34.666Z,10.91
2018-01-11T04:05:15.234Z,10.82
2018-01-11T04:05:55.776Z,10.79
2018-01-11T04:06:36.285Z,10.78
2018-01-11T04:07:16.858Z,10.79
2018-01-11T04:07:57.410Z,10.82
2018-01-11T04:08:37.917Z,10.86
2018-01-11T04:09:18.457Z,10.91
2018-01-11T04:09:58.967Z,11
2018-01-11T04:10:39.734Z,10.99
2018-01-11T04:11:20.312Z,11.04
2018-01-11T04:12:00.827Z,10.97
2018-01-11T04:12:41.352Z,10.96
2018-01-11T04:13:21.860Z,10.99
2018-01-11T04:14:02.396Z,10.94
2018-01-11T04:14:42.921Z,11
2018-01-11T04:15:23.452Z,11.03
2018-01-11T04:16:04.020Z,11.1
2018-01-11T04:16:44.530Z,11.19
2018-01-11T04:17:25.114Z,11.18
2018-01-11T04:18:05.643Z,11.21
2018-01-11T04:18:46.224Z,11.18
2018-01-11T04:19:26.715Z,11.11
2018-01-11T04:20:07.304Z,11.03
2018-01-11T04:20:47.846Z,10.97
2018-01-11T04:21:28.374Z,11
2018-01-11T04:22:08.894Z,10.97
2018-01-11T04:22:49.532Z,11.04
2018-01-11T04:23:30.097Z,11.03
2018-01-11T04:24:10.673Z,11.11
2018-01-11T04:24:51.273Z,11.06
2018-01-11T04:25:31.808Z,11.04
2018-01-11T04:26:12.348Z,11.04
2018-01-11T04:26:52.975Z,11.06
2018-01-11T04:27:33.449Z,10.94
2018-01-11T04:28:14.015Z,11.06
2018-01-11T04:28:54.572Z,11.03
2018-01-11T04:29:35.067Z,11.03
2018-01-11T04:30:15.593Z,11.09
2018-01-11T04:30:56.147Z,11.04
2018-01-11T04:31:36.701Z,11.04
2018-01-11T04:32:17.357Z,11.07
2018-01-11T04:32:57.888Z,11.07
2018-01-11T04:33:38.420Z,10.96
2018-01-11T04:34:18.995Z,11.06
2018-01-11T04:34:59.572Z,11.07
2018-01-11T04:35:40.045Z,10.92
2018-01-11T04:36:20.570Z,10.84
2018-01-11T04:37:01.111Z,10.86
2018-01-11T04:37:41.644Z,10.84
2018-01-11T04:38:22.185Z,10.79
2018-01-11T04:39:02.740Z,10.74
2018-01-11T04:39:43.304Z,10.76
2018-01-11T04:40:23.846Z,10.79
2018-01-11T04:41:04.366Z,10.68
2018-01-11T04:41:44.927Z,10.63
2018-01-11T04:42:25.454Z,10.68
2018-01-11T04:43:05.998Z,10.68
2018-01-11T04:43:46.521Z,10.79
2018-01-11T04:44:27.066Z,10.81
2018-01-11T04:45:07.594Z,10.68
2018-01-11T04:45:48.118Z,10.7
2018-01-11T04:46:28.631Z,10.6
2018-01-11T04:47:09.201Z,10.6
2018-01-11T04:47:49.690Z,10.71
2018-01-11T04:48:30.287Z,10.6
2018-01-11T04:49:10.810Z,10.76
2018-01-11T04:49:51.315Z,10.78
2018-01-11T04:50:31.867Z,10.67
2018-01-11T04:51:12.356Z,10.74
2018-01-11T04:51:52.921Z,10.67
2018-01-11T04:52:33.441Z,10.73
2018-01-11T04:53:13.951Z,10.61
2018-01-11T04:53:54.500Z,10.64
2018-01-11T04:54:34.996Z,10.63
2018-01-11T04:55:15.584Z,10.61
2018-01-11T04:55:56.080Z,10.73
2018-01-11T04:56:36.628Z,10.73
2018-01-11T04:57:17.170Z,10.71
2018-01-11T04:57:57.677Z,10.73
2018-01-11T04:58:38.185Z,10.74
2018-01-11T04:59:18.711Z,10.79
2018-01-11T04:59:59.277Z,10.74
2018-01-11T05:00:39.801Z,10.73
2018-01-11T05:01:20.325Z,10.68
2018-01-11T05:02:00.884Z,10.79
2018-01-11T05:02:41.410Z,10.7
2018-01-11T05:03:21.978Z,10.84
2018-01-11T05:04:02.573Z,10.85
2018-01-11T05:04:43.060Z,10.81
2018-01-11T05:05:23.594Z,10.81
2018-01-11T05:06:04.142Z,10.84
2018-01-11T05:06:44.632Z,10.86
2018-01-11T05:07:25.233Z,10.78
2018-01-11T05:08:05.758Z,10.81
2018-01-11T05:08:46.293Z,10.78
2018-01-11T05:09:26.831Z,10.78
2018-01-11T05:10:07.375Z,10.66
2018-01-11T05:10:47.939Z,10.74
2018-01-11T05:11:28.473Z,10.81
2018-01-11T05:12:08.978Z,10.78
2018-01-11T05:12:49.510Z,10.78
2018-01-11T05:13:30.067Z,10.78
2018-01-11T05:14:10.615Z,10.7
2018-01-11T05:14:51.160Z,10.7
2018-01-11T05:15:31.708Z,10.67
2018-01-11T05:16:12.239Z,10.67
2018-01-11T05:16:52.765Z,10.66
2018-01-11T05:17:33.249Z,10.61
2018-01-11T05:18:13.837Z,10.7
2018-01-11T05:18:54.342Z,10.79
2018-01-11T05:19:34.885Z,10.63
2018-01-11T05:20:15.412Z,10.68
2018-01-11T05:20:55.937Z,10.64
2018-01-11T05:21:36.470Z,10.63
2018-01-11T05:22:17.009Z,10.61
2018-01-11T05:22:57.576Z,10.63
2018-01-11T05:23:38.082Z,10.64
2018-01-11T05:24:18.682Z,10.59
2018-01-11T05:24:59.156Z,10.53
2018-01-11T05:25:39.705Z,10.6
2018-01-11T05:26:20.239Z,10.61
2018-01-11T05:27:00.757Z,10.61
2018-01-11T05:27:41.280Z,10.64
2018-01-11T05:28:21.891Z,10.61
2018-01-11T05:29:02.409Z,10.66
2018-01-11T05:29:42.916Z,10.64
2018-01-11T05:30:23.460Z,10.55
2018-01-11T05:31:04.015Z,10.52
2018-01-11T05:31:44.658Z,10.52
2018-01-11T05:32:25.112Z,10.42
2018-01-11T05:33:05.613Z,10.4
2018-01-11T05:33:46.210Z,10.34
2018-01-11T05:34:26.759Z,10.36
2018-01-11T05:35:07.303Z,10.4
2018-01-11T05:35:47.838Z,10.52
2018-01-11T05:36:28.401Z,10.42
2018-01-11T05:37:08.970Z,10.38
2018-01-11T05:37:49.558Z,10.44
2018-01-11T05:38:30.077Z,10.47
2018-01-11T05:39:10.620Z,10.45
2018-01-11T05:39:51.158Z,10.45
2018-01-11T05:40:31.663Z,10.4
2018-01-11T05:41:12.176Z,10.55
2018-01-11T05:41:52.760Z,10.55
2018-01-11T05:42:33.267Z,10.48
2018-01-11T05:43:13.787Z,10.52
2018-01-11T05:43:54.362Z,10.44
2018-01-11T05:44:34.840Z,10.36
2018-01-11T05:45:15.384Z,10.38
2018-01-11T05:45:55.944Z,10.56
2018-01-11T05:46:36.566Z,10.55
2018-01-11T05:47:17.068Z,10.48
2018-01-11T05:47:57.576Z,10.53
2018-01-11T05:48:38.165Z,10.41
2018-01-11T05:49:18.729Z,10.36
2018-01-11T05:49:59.296Z,10.36
2018-01-11T05:50:39.803Z,10.42
2018-01-11T05:51:20.366Z,10.34
2018-01-11T05:52:00.948Z,10.36
2018-01-11T05:52:41.492Z,10.4
2018-01-11T05:53:22.205Z,10.29
2018-01-11T05:54:02.842Z,10.2
2018-01-11T05:54:43.525Z,10.15
2018-01-11T05:55:24.113Z,10.2
2018-01-11T05:56:04.661Z,10.2
2018-01-11T05:56:45.190Z,10.33
2018-01-11T05:57:25.735Z,10.26
2018-01-11T05:58:06.262Z,10.23
2018-01-11T05:58:46.802Z,10.3
2018-01-11T05:59:27.360Z,10.33
2018-01-11T06:00:07.902Z,10.29
2018-01-11T06:00:48.455Z,10.3
2018-01-11T06:01:28.935Z,10.36
2018-01-11T06:02:09.529Z,10.3
2018-01-11T06:02:50.090Z,10.33
2018-01-11T06:03:30.663Z,10.27
2018-01-11T06:04:11.189Z,10.27
2018-01-11T06:04:51.750Z,10.38
2018-01-11T06:05:32.299Z,10.34
2018-01-11T06:06:12.809Z,10.38
2018-01-11T06:06:53.334Z,10.36
2018-01-11T06:07:33.880Z,10.38
2018-01-11T06:08:14.416Z,10.4
2018-01-11T06:08:55.024Z,10.42
2018-01-11T06:09:35.565Z,10.53
2018-01-11T06:10:16.134Z,10.55
2018-01-11T06:10:56.714Z,10.52
2018-01-11T06:11:37.246Z,10.48
2018-01-11T06:12:17.769Z,10.53
2018-01-11T06:12:58.290Z,10.53
2018-01-11T06:13:38.820Z,10.51
2018-01-11T06:14:19.373Z,10.63
2018-01-11T06:14:59.979Z,10.63
2018-01-11T06:15:40.482Z,10.66
2018-01-11T06:16:21.047Z,10.66
2018-01-11T06:17:01.561Z,10.68
2018-01-11T06:17:42.089Z,10.68
2018-01-11T06:18:22.630Z,10.74
2018-01-11T06:19:03.231Z,10.67
2018-01-11T06:19:43.824Z,10.55
2018-01-11T06:20:24.326Z,10.66
2018-01-11T06:21:04.826Z,10.7
2018-01-11T06:21:45.344Z,10.64
2018-01-11T06:22:25.930Z,10.67
2018-01-11T06:23:06.464Z,10.6
2018-01-11T06:23:46.972Z,10.71
2018-01-11T06:24:27.544Z,10.86
2018-01-11T06:25:08.095Z,10.73
2018-01-11T06:25:48.606Z,10.81
2018-01-11T06:26:29.115Z,10.74
2018-01-11T06:27:09.684Z,10.78
2018-01-11T06:27:50.194Z,10.78
2018-01-11T06:28:30.702Z,10.86
2018-01-11T06:29:11.252Z,10.99
2018-01-11T06:29:51.811Z,10.82
2018-01-11T06:30:32.371Z,10.96
2018-01-11T06:31:12.905Z,11.04
2018-01-11T06:31:53.431Z,11.07
2018-01-11T06:32:33.982Z,10.97
2018-01-11T06:33:14.536Z,10.96
2018-01-11T06:33:55.084Z,10.97
2018-01-11T06:34:35.667Z,10.76
2018-01-11T06:35:16.204Z,10.85
2018-01-11T06:35:56.682Z,10.88
2018-01-11T06:36:37.262Z,10.94
2018-01-11T06:37:17.771Z,10.92
2018-01-11T06:37:58.292Z,10.94
2018-01-11T06:38:38.863Z,10.97
2018-01-11T06:39:19.376Z,11
2018-01-11T06:39:59.936Z,10.88
2018-01-11T06:40:40.509Z,10.89
2018-01-11T06:41:20.985Z,11
2018-01-11T06:42:01.588Z,11.03
2018-01-11T06:42:42.085Z,10.96
2018-01-11T06:43:22.649Z,10.92
2018-01-11T06:44:03.198Z,11.06
2018-01-11T06:44:43.683Z,10.92
2018-01-11T06:45:24.229Z,10.96
2018-01-11T06:46:04.819Z,10.94
2018-01-11T06:46:45.366Z,11.04
2018-01-11T06:47:25.916Z,11
2018-01-11T06:48:06.413Z,11.09
2018-01-11T06:48:46.965Z,11.04
2018-01-11T06:49:27.548Z,11.02
2018-01-11T06:50:08.072Z,10.97
2018-01-11T06:50:48.608Z,11.07
2018-01-11T06:51:29.121Z,11.07
2018-01-11T06:52:09.678Z,11.02
2018-01-11T06:52:50.178Z,11.11
2018-01-11T06:53:30.715Z,11.21
2018-01-11T06:54:11.241Z,11.17
2018-01-11T06:54:51.788Z,11.15
2018-01-11T06:55:32.312Z,11.18
2018-01-11T06:56:12.831Z,11.17
2018-01-11T06:56:53.363Z,11.19
2018-01-11T06:57:33.904Z,11.22
2018-01-11T06:58:14.479Z,11.21
2018-01-11T06:58:55.068Z,11.18
2018-01-11T06:59:35.624Z,11.33
2018-01-11T07:00:16.200Z,11.27
2018-01-11T07:00:56.773Z,11.28
2018-01-11T07:01:37.409Z,11.27
2018-01-11T07:02:18.020Z,11.43
2018-01-11T07:02:58.591Z,11.52
2018-01-11T07:03:39.107Z,11.42
2018-01-11T07:04:19.678Z,11.33
2018-01-11T07:05:00.213Z,11.39
2018-01-11T07:05:40.736Z,11.36
2018-01-11T07:06:21.402Z,11.35
2018-01-11T07:07:02.032Z,11.27
2018-01-11T07:07:42.558Z,11.39
2018-01-11T07:08:23.086Z,11.42
2018-01-11T07:09:03.692Z,11.4
2018-01-11T07:09:44.236Z,11.4
2018-01-11T07:10:24.740Z,11.37
2018-01-11T07:11:05.274Z,11.4
2018-01-11T07:11:45.779Z,11.43
2018-01-11T07:12:26.316Z,11.37
2018-01-11T07:13:06.832Z,11.42
2018-01-11T07:13:47.407Z,11.43
2018-01-11T07:14:27.961Z,11.51
2018-01-11T07:15:08.471Z,11.51
2018-01-11T07:15:49.030Z,11.46
2018-01-11T07:16:29.598Z,11.58
2018-01-11T07:17:10.184Z,11.51
2018-01-11T07:17:50.775Z,11.54
2018-01-11T07:18:31.306Z,11.55
2018-01-11T07:19:11.841Z,11.51
2018-01-11T07:19:52.364Z,11.55
2018-01-11T07:20:33.163Z,11.46
2018-01-11T07:21:13.653Z,11.55
2018-01-11T07:21:54.267Z,11.49
2018-01-11T07:22:34.802Z,11.52
2018-01-11T07:23:15.284Z,11.46
2018-01-11T07:23:55.811Z,11.49
2018-01-11T07:24:36.306Z,11.51
2018-01-11T07:25:16.925Z,11.47
2018-01-11T07:25:57.699Z,11.54
2018-01-11T07:26:38.277Z,11.52
2018-01-11T07:27:19.339Z,11.54
2018-01-11T07:27:59.676Z,11.52
2018-01-11T07:28:40.557Z,11.54
2018-01-11T07:29:21.714Z,11.52
2018-01-11T07:30:01.652Z,11.61
2018-01-11T07:30:42.151Z,11.58
2018-01-11T07:31:22.738Z,11.44
2018-01-11T07:32:03.283Z,11.43
2018-01-11T07:32:43.927Z,11.57
2018-01-11T07:33:24.570Z,11.61
2018-01-11T07:34:05.132Z,11.57
2018-01-11T07:34:45.680Z,11.61
2018-01-11T07:35:26.183Z,11.46
2018-01-11T07:36:06.683Z,11.28
2018-01-11T07:36:47.210Z,11.39
2018-01-11T07:37:27.785Z,11.46
2018-01-11T07:38:08.306Z,11.47
2018-01-11T07:38:48.856Z,11.47
2018-01-11T07:39:29.358Z,11.6
2018-01-11T07:40:09.931Z,11.49
2018-01-11T07:40:50.656Z,11.54
2018-01-11T07:41:31.152Z,11.47
2018-01-11T07:42:11.669Z,11.47
2018-01-11T07:42:53.170Z,11.43
2018-01-11T07:43:33.648Z,11.21
2018-01-11T07:44:14.349Z,11.33
2018-01-11T07:44:54.915Z,11.29
2018-01-11T07:45:35.860Z,11.35
2018-01-11T07:46:16.190Z,11.39
2018-01-11T07:46:56.797Z,11.37
2018-01-11T07:47:37.342Z,11.4
2018-01-11T07:48:18.308Z,11.42
2018-01-11T07:48:59.611Z,11.46
2018-01-11T07:49:40.161Z,11.43
2018-01-11T07:50:21.794Z,11.46
2018-01-11T07:51:02.779Z,11.58
2018-01-11T07:51:43.329Z,11.62
2018-01-11T07:52:23.856Z,11.62
2018-01-11T07:53:04.482Z,11.72
2018-01-11T07:53:44.934Z,11.65
2018-01-11T07:54:25.494Z,11.58
2018-01-11T07:55:06.236Z,11.64
2018-01-11T07:55:47.718Z,11.61
2018-01-11T07:56:28.330Z,11.64
2018-01-11T07:57:08.876Z,11.6
2018-01-11T07:57:49.420Z,11.61
2018-01-11T07:58:29.920Z,11.64
2018-01-11T07:59:10.592Z,11.62
2018-01-11T07:59:50.968Z,11.57
2018-01-11T08:00:31.717Z,11.64
2018-01-11T08:01:12.212Z,11.62
2018-01-11T08:01:53.209Z,11.65
2018-01-11T08:02:33.677Z,11.67
2018-01-11T08:03:14.201Z,11.65
2018-01-11T08:03:54.775Z,11.57
2018-01-11T08:04:35.376Z,11.69
2018-01-11T08:05:15.885Z,11.7
2018-01-11T08:05:56.464Z,11.7
2018-01-11T08:06:37.053Z,11.79
2018-01-11T08:07:17.633Z,11.8
2018-01-11T08:07:58.195Z,11.76
2018-01-11T08:08:38.774Z,11.67
2018-01-11T08:09:19.317Z,11.6
2018-01-11T08:09:59.845Z,11.65
2018-01-11T08:10:40.439Z,11.58
2018-01-11T08:11:21.069Z,11.64
2018-01-11T08:12:01.578Z,11.62
2018-01-11T08:12:42.392Z,11.67
2018-01-11T08:13:22.704Z,11.75
2018-01-11T08:14:03.270Z,11.7
2018-01-11T08:14:43.831Z,11.62
2018-01-11T08:15:24.417Z,11.65
2018-01-11T08:16:04.997Z,11.62
2018-01-11T08:16:45.505Z,11.64
2018-01-11T08:17:26.057Z,11.78
2018-01-11T08:18:06.557Z,11.73
2018-01-11T08:18:47.107Z,11.8
2018-01-11T08:19:27.774Z,11.86
2018-01-11T08:20:08.337Z,11.82
2018-01-11T08:20:48.826Z,11.79
2018-01-11T08:21:29.546Z,11.82
2018-01-11T08:22:10.330Z,11.79
2018-01-11T08:22:50.873Z,11.82
2018-01-11T08:23:31.345Z,11.78
2018-01-11T08:24:11.969Z,11.85
2018-01-11T08:24:52.631Z,11.78
2018-01-11T08:25:33.126Z,11.75
2018-01-11T08:26:13.649Z,11.85
2018-01-11T08:26:54.201Z,11.79
2018-01-11T08:27:34.800Z,11.76
2018-01-11T08:28:15.331Z,11.79
2018-01-11T08:28:55.847Z,11.86
2018-01-11T08:29:36.435Z,11.79
2018-01-11T08:30:17.026Z,11.85
2018-01-11T08:30:57.564Z,11.91
2018-01-11T08:31:38.115Z,11.9
2018-01-11T08:32:18.654Z,11.91
2018-01-11T08:32:59.198Z,11.85
2018-01-11T08:33:39.715Z,11.95
2018-01-11T08:34:20.282Z,11.94
2018-01-11T08:35:00.843Z,11.99
2018-01-11T08:35:41.383Z,11.94
2018-01-11T08:36:21.937Z,11.99
2018-01-11T08:37:02.630Z,11.85
2018-01-11T08:37:43.102Z,11.88
2018-01-11T08:38:23.684Z,11.94
2018-01-11T08:39:04.192Z,12.14
2018-01-11T08:39:44.744Z,12.27
2018-01-11T08:40:25.357Z,12.28
2018-01-11T08:41:05.853Z,12.04
2018-01-11T08:41:46.451Z,11.95
2018-01-11T08:42:27.158Z,12.01
2018-01-11T08:43:08.329Z,11.94
2018-01-11T08:43:49.022Z,11.85
2018-01-11T08:44:29.829Z,12.01